createdAt,value
2023-05-07T00:00:38.965Z,1.45
2023-05-07T00:01:41.272Z,1.20
2023-05-07T00:02:44.297Z,1.60
2023-05-07T00:03:46.374Z,1.58
2023-05-07T00:04:48.772Z,1.52
2023-05-07T00:05:50.818Z,1.58
2023-05-07T00:06:52.670Z,1.80
2023-05-07T00:07:54.578Z,1.58
2023-05-07T00:08:58.817Z,1.63
2023-05-07T00:10:00.659Z,1.88
2023-05-07T00:11:02.616Z,1.38
2023-05-07T00:12:04.719Z,1.20
2023-05-07T00:13:06.647Z,1.40
2023-05-07T00:14:08.660Z,1.55
2023-05-07T00:15:11.711Z,1.40
2023-05-07T00:16:13.968Z,1.42
2023-05-07T00:17:15.924Z,1.45
2023-05-07T00:18:17.824Z,1.50
2023-05-07T00:19:19.782Z,1.27
2023-05-07T00:20:21.904Z,1.30
2023-05-07T00:21:23.903Z,1.60
2023-05-07T00:22:26.003Z,1.45
2023-05-07T00:23:28.136Z,1.65
2023-05-07T00:24:29.981Z,1.40
2023-05-07T00:25:31.935Z,1.20
2023-05-07T00:26:34.234Z,1.20
2023-05-07T00:27:36.118Z,1.65
2023-05-07T00:28:37.972Z,1.48
2023-05-07T00:29:40.290Z,1.25
2023-05-07T00:30:42.141Z,1.50
2023-05-07T00:31:44.110Z,1.33
2023-05-07T00:32:46.703Z,1.20
2023-05-07T00:33:48.724Z,1.70
2023-05-07T00:34:52.026Z,1.50
2023-05-07T00:35:55.387Z,1.40
2023-05-07T00:36:57.497Z,1.60
2023-05-07T00:37:59.732Z,1.50
2023-05-07T00:39:04.487Z,1.20
2023-05-07T00:40:08.923Z,1.30
2023-05-07T00:41:11.322Z,1.40
2023-05-07T00:42:13.284Z,1.35
2023-05-07T00:43:16.105Z,1.30
2023-05-07T00:44:19.269Z,1.20
2023-05-07T00:45:21.109Z,1.17
2023-05-07T00:46:24.310Z,1.30
2023-05-07T00:47:27.330Z,1.40
2023-05-07T00:48:29.443Z,1.33
2023-05-07T00:49:42.557Z,1.20
2023-05-07T00:50:46.836Z,1.40
2023-05-07T00:51:49.065Z,1.35
2023-05-07T00:52:51.336Z,1.23
2023-05-07T00:53:53.557Z,1.23
2023-05-07T00:54:56.198Z,1.20
2023-05-07T00:55:58.600Z,1.10
2023-05-07T00:57:00.475Z,1.25
2023-05-07T00:58:02.519Z,1.00
2023-05-07T00:59:04.731Z,1.20
2023-05-07T01:00:10.036Z,1.20
2023-05-07T01:01:12.504Z,1.35
2023-05-07T01:02:14.533Z,1.25
2023-05-07T01:03:16.983Z,1.13
2023-05-07T01:04:19.294Z,1.30
2023-05-07T01:05:25.955Z,1.17
2023-05-07T01:06:31.220Z,1.10
2023-05-07T01:07:35.734Z,1.23
2023-05-07T01:08:40.728Z,1.05
2023-05-07T01:09:42.673Z,1.25
2023-05-07T01:10:47.012Z,1.05
2023-05-07T01:11:51.337Z,0.80
2023-05-07T01:12:55.116Z,1.13
2023-05-07T01:14:00.370Z,1.20
2023-05-07T01:15:03.999Z,1.10
2023-05-07T01:16:06.552Z,1.30
2023-05-07T01:17:09.444Z,0.98
2023-05-07T01:18:11.823Z,1.10
2023-05-07T01:19:17.163Z,1.10
2023-05-07T01:20:20.169Z,1.05
2023-05-07T01:21:27.722Z,1.30
2023-05-07T01:22:38.017Z,1.20
2023-05-07T01:23:41.766Z,1.20
2023-05-07T01:24:44.440Z,1.15
2023-05-07T01:25:56.474Z,1.50
2023-05-07T01:26:58.385Z,1.00
2023-05-07T01:28:03.440Z,1.20
2023-05-07T01:29:05.363Z,1.10
2023-05-07T01:30:08.320Z,1.10
2023-05-07T01:31:11.296Z,0.80
2023-05-07T01:32:16.227Z,1.30
2023-05-07T01:33:25.046Z,1.30
2023-05-07T01:34:32.366Z,1.23
2023-05-07T01:35:41.597Z,0.93
2023-05-07T01:36:46.009Z,1.10
2023-05-07T01:37:49.468Z,1.00
2023-05-07T01:38:51.601Z,1.00
2023-05-07T01:39:54.846Z,1.42
2023-05-07T01:40:58.142Z,1.10
2023-05-07T01:42:00.927Z,1.15
2023-05-07T01:43:07.280Z,1.13
2023-05-07T01:44:13.499Z,1.30
2023-05-07T01:45:15.764Z,1.33
2023-05-07T01:46:20.153Z,1.20
2023-05-07T01:47:23.678Z,1.10
2023-05-07T01:48:27.026Z,1.40
2023-05-07T01:49:29.176Z,1.30
2023-05-07T01:50:33.532Z,1.20
2023-05-07T01:51:36.576Z,1.20
2023-05-07T01:52:41.215Z,1.08
2023-05-07T01:53:44.859Z,1.30
2023-05-07T01:54:46.649Z,1.33
2023-05-07T01:55:48.545Z,1.30
2023-05-07T01:56:50.564Z,1.40
2023-05-07T01:57:52.487Z,1.20
2023-05-07T01:58:54.402Z,1.20
2023-05-07T01:59:56.636Z,1.30
2023-05-07T02:00:58.568Z,1.25
2023-05-07T02:02:00.560Z,1.10
2023-05-07T02:03:02.984Z,1.20
2023-05-07T02:04:05.338Z,1.27
2023-05-07T02:05:07.726Z,1.60
2023-05-07T02:06:09.701Z,1.20
2023-05-07T02:07:11.701Z,1.20
2023-05-07T02:08:13.600Z,1.30
2023-05-07T02:09:16.181Z,1.38
2023-05-07T02:10:20.993Z,1.30
2023-05-07T02:11:22.830Z,1.02
2023-05-07T02:12:24.838Z,1.63
2023-05-07T02:13:31.213Z,1.25
2023-05-07T02:14:33.131Z,1.30
2023-05-07T02:15:35.090Z,1.55
2023-05-07T02:16:37.431Z,1.45
2023-05-07T02:18:01.948Z,1.43
2023-05-07T02:19:04.403Z,1.40
2023-05-07T02:20:08.369Z,1.02
2023-05-07T02:21:10.366Z,1.40
2023-05-07T02:22:12.607Z,1.30
2023-05-07T02:23:14.510Z,1.43
2023-05-07T02:24:16.844Z,1.25
2023-05-07T02:25:18.986Z,1.20
2023-05-07T02:26:22.453Z,1.33
2023-05-07T02:27:24.326Z,1.50
2023-05-07T02:28:26.340Z,1.30
2023-05-07T02:29:28.244Z,1.43
2023-05-07T02:30:30.078Z,1.45
2023-05-07T02:31:32.531Z,1.20
2023-05-07T02:32:34.798Z,1.52
2023-05-07T02:33:37.598Z,1.17
2023-05-07T02:34:39.601Z,1.30
2023-05-07T02:35:41.543Z,1.17
2023-05-07T02:36:43.905Z,1.20
2023-05-07T02:37:45.783Z,1.20
2023-05-07T02:38:47.722Z,1.55
2023-05-07T02:39:49.582Z,1.30
2023-05-07T02:40:51.485Z,1.42
2023-05-07T02:41:53.323Z,1.35
2023-05-07T02:42:55.390Z,1.30
2023-05-07T02:43:57.606Z,1.30
2023-05-07T02:44:59.655Z,1.30
2023-05-07T02:46:10.472Z,1.20
2023-05-07T02:47:14.447Z,1.37
2023-05-07T02:48:16.335Z,1.40
2023-05-07T02:49:18.149Z,1.30
2023-05-07T02:50:20.054Z,1.50
2023-05-07T02:51:25.383Z,1.27
2023-05-07T02:52:28.090Z,1.50
2023-05-07T02:53:30.462Z,1.25
2023-05-07T02:54:32.837Z,1.30
2023-05-07T02:55:34.672Z,1.37
2023-05-07T02:56:36.581Z,1.40
2023-05-07T02:57:38.457Z,1.50
2023-05-07T02:58:40.404Z,1.60
2023-05-07T02:59:43.663Z,1.47
2023-05-07T03:00:45.764Z,1.50
2023-05-07T03:01:47.792Z,1.65
2023-05-07T03:02:49.813Z,1.50
2023-05-07T03:03:51.861Z,1.50
2023-05-07T03:04:54.060Z,1.30
2023-05-07T03:05:56.086Z,1.40
2023-05-07T03:06:58.001Z,1.30
2023-05-07T03:08:00.479Z,1.27
2023-05-07T03:09:02.679Z,1.70
2023-05-07T03:10:06.079Z,1.40
2023-05-07T03:11:07.973Z,1.30
2023-05-07T03:12:09.755Z,1.05
2023-05-07T03:13:11.748Z,1.40
2023-05-07T03:14:13.703Z,1.40
2023-05-07T03:15:15.849Z,1.40
2023-05-07T03:16:17.753Z,1.33
2023-05-07T03:17:19.673Z,1.30
2023-05-07T03:18:21.707Z,1.30
2023-05-07T03:19:23.861Z,1.40
2023-05-07T03:20:25.903Z,1.37
2023-05-07T03:21:27.861Z,1.40
2023-05-07T03:22:29.805Z,1.30
2023-05-07T03:23:31.666Z,1.40
2023-05-07T03:24:33.653Z,1.40
2023-05-07T03:25:35.882Z,1.40
2023-05-07T03:26:37.710Z,1.40
2023-05-07T03:27:39.681Z,1.40
2023-05-07T03:28:41.995Z,1.47
2023-05-07T03:29:44.190Z,1.30
2023-05-07T03:30:46.037Z,1.40
2023-05-07T03:31:48.043Z,1.20
2023-05-07T03:32:50.093Z,1.40
2023-05-07T03:33:57.757Z,1.55
2023-05-07T03:34:59.654Z,1.40
2023-05-07T03:36:02.351Z,1.20
2023-05-07T03:37:04.446Z,1.50
2023-05-07T03:38:06.807Z,1.40
2023-05-07T03:39:08.834Z,1.40
2023-05-07T03:40:12.232Z,1.30
2023-05-07T03:41:14.388Z,1.27
2023-05-07T03:42:16.534Z,1.30
2023-05-07T03:43:18.566Z,1.60
2023-05-07T03:44:21.087Z,1.25
2023-05-07T03:45:23.036Z,1.60
2023-05-07T03:46:27.245Z,1.43
2023-05-07T03:47:29.254Z,1.40
2023-05-07T03:48:31.231Z,1.20
2023-05-07T03:49:33.101Z,1.30
2023-05-07T03:50:35.038Z,1.40
2023-05-07T03:51:37.153Z,1.37
2023-05-07T03:52:38.992Z,1.60
2023-05-07T03:53:40.811Z,1.50
2023-05-07T03:54:42.645Z,1.60
2023-05-07T03:55:44.526Z,1.53
2023-05-07T03:56:46.456Z,1.20
2023-05-07T03:57:48.291Z,1.20
2023-05-07T03:58:50.370Z,1.35
2023-05-07T03:59:52.536Z,1.37
2023-05-07T04:00:54.736Z,1.30
2023-05-07T04:01:56.786Z,1.27
2023-05-07T04:02:59.068Z,1.50
2023-05-07T04:04:01.064Z,1.47
2023-05-07T04:05:02.986Z,1.53
2023-05-07T04:06:04.980Z,1.23
2023-05-07T04:07:06.876Z,1.70
2023-05-07T04:08:09.132Z,1.70
2023-05-07T04:09:11.444Z,1.10
2023-05-07T04:10:14.486Z,1.57
2023-05-07T04:11:16.629Z,1.20
2023-05-07T04:12:18.529Z,1.43
2023-05-07T04:13:20.688Z,1.40
2023-05-07T04:14:22.905Z,1.40
2023-05-07T04:15:25.415Z,1.40
2023-05-07T04:16:27.370Z,1.40
2023-05-07T04:17:29.363Z,1.53
2023-05-07T04:18:31.307Z,1.47
2023-05-07T04:19:34.946Z,1.27
2023-05-07T04:20:37.823Z,1.40
2023-05-07T04:21:39.839Z,1.20
2023-05-07T04:22:41.766Z,1.50
2023-05-07T04:23:43.919Z,1.60
2023-05-07T04:24:45.740Z,1.40
2023-05-07T04:25:47.657Z,1.40
2023-05-07T04:26:49.860Z,1.50
2023-05-07T04:27:51.916Z,1.57
2023-05-07T04:28:53.728Z,1.40
2023-05-07T04:29:57.095Z,1.60
2023-05-07T04:30:59.518Z,1.40
2023-05-07T04:32:01.527Z,1.53
2023-05-07T04:33:04.017Z,1.30
2023-05-07T04:34:06.493Z,1.00
2023-05-07T04:35:08.624Z,1.30
2023-05-07T04:36:10.540Z,1.27
2023-05-07T04:37:12.565Z,1.30
2023-05-07T04:38:14.454Z,1.10
2023-05-07T04:39:16.308Z,1.37
2023-05-07T04:40:18.282Z,1.07
2023-05-07T04:41:20.641Z,1.40
2023-05-07T04:42:22.519Z,1.37
2023-05-07T04:43:24.735Z,1.20
2023-05-07T04:44:26.779Z,1.23
2023-05-07T04:45:28.913Z,1.30
2023-05-07T04:46:32.637Z,1.30
2023-05-07T04:47:34.970Z,1.30
2023-05-07T04:48:37.191Z,1.57
2023-05-07T04:49:41.922Z,1.40
2023-05-07T04:50:43.888Z,1.30
2023-05-07T04:51:45.886Z,1.40
2023-05-07T04:52:47.803Z,1.60
2023-05-07T04:53:50.486Z,1.30
2023-05-07T04:54:52.271Z,1.23
2023-05-07T04:55:58.048Z,1.50
2023-05-07T04:56:59.927Z,1.20
2023-05-07T04:58:02.945Z,1.23
2023-05-07T04:59:04.872Z,1.40
2023-05-07T05:00:09.851Z,1.50
2023-05-07T05:01:12.383Z,1.40
2023-05-07T05:02:14.448Z,1.27
2023-05-07T05:03:16.815Z,1.53
2023-05-07T05:04:18.777Z,1.17
2023-05-07T05:05:20.990Z,1.43
2023-05-07T05:06:22.902Z,1.30
2023-05-07T05:07:25.329Z,1.30
2023-05-07T05:08:27.752Z,1.00
2023-05-07T05:09:29.709Z,1.27
2023-05-07T05:10:31.525Z,1.10
2023-05-07T05:11:33.631Z,1.37
2023-05-07T05:12:35.758Z,1.30
2023-05-07T05:13:37.633Z,1.20
2023-05-07T05:14:39.620Z,1.23
2023-05-07T05:15:41.672Z,1.40
2023-05-07T05:16:43.679Z,1.33
2023-05-07T05:17:45.971Z,1.53
2023-05-07T05:18:47.861Z,1.40
2023-05-07T05:19:49.677Z,1.30
2023-05-07T05:20:53.035Z,1.20
2023-05-07T05:21:54.992Z,1.23
2023-05-07T05:22:56.861Z,1.40
2023-05-07T05:23:59.737Z,1.50
2023-05-07T05:25:02.194Z,1.20
2023-05-07T05:26:04.104Z,1.23
2023-05-07T05:27:07.126Z,1.23
2023-05-07T05:28:08.960Z,1.50
2023-05-07T05:29:11.138Z,1.37
2023-05-07T05:30:13.882Z,1.00
2023-05-07T05:31:15.874Z,1.10
2023-05-07T05:32:17.731Z,1.37
2023-05-07T05:33:19.500Z,1.20
2023-05-07T05:34:21.497Z,1.37
2023-05-07T05:35:23.370Z,1.30
2023-05-07T05:36:25.275Z,1.10
2023-05-07T05:37:27.788Z,1.13
2023-05-07T05:38:29.729Z,1.23
2023-05-07T05:39:31.833Z,1.33
2023-05-07T05:40:34.348Z,1.40
2023-05-07T05:41:36.284Z,1.30
2023-05-07T05:42:38.182Z,1.17
2023-05-07T05:43:40.053Z,1.33
2023-05-07T05:44:42.024Z,1.10
2023-05-07T05:45:44.021Z,1.37
2023-05-07T05:46:46.246Z,1.20
2023-05-07T05:47:48.560Z,1.40
2023-05-07T05:48:50.485Z,1.27
2023-05-07T05:49:52.478Z,1.40
2023-05-07T05:50:54.628Z,1.30
2023-05-07T05:51:57.012Z,1.40
2023-05-07T05:53:00.417Z,1.35
2023-05-07T05:54:02.528Z,1.30
2023-05-07T05:55:04.805Z,1.40
2023-05-07T05:56:07.336Z,1.30
2023-05-07T05:57:09.568Z,1.30
2023-05-07T05:58:11.620Z,1.40
2023-05-07T05:59:13.579Z,1.07
2023-05-07T06:00:15.774Z,1.53
2023-05-07T06:01:19.799Z,1.47
2023-05-07T06:02:21.930Z,1.33
2023-05-07T06:03:24.073Z,1.20
2023-05-07T06:04:26.049Z,1.43
2023-05-07T06:05:28.262Z,0.97
2023-05-07T06:06:30.323Z,1.40
2023-05-07T06:07:32.149Z,1.30
2023-05-07T06:08:34.034Z,1.10
2023-05-07T06:09:36.045Z,1.30
2023-05-07T06:10:39.170Z,1.20
2023-05-07T06:11:42.020Z,1.20
2023-05-07T06:12:44.105Z,1.30
2023-05-07T06:13:46.014Z,1.30
2023-05-07T06:14:48.492Z,1.30
2023-05-07T06:15:50.902Z,1.10
2023-05-07T06:16:52.872Z,1.60
2023-05-07T06:17:57.106Z,1.37
2023-05-07T06:18:59.103Z,1.20
2023-05-07T06:20:01.015Z,1.30
2023-05-07T06:21:03.562Z,1.10
2023-05-07T06:22:06.819Z,1.33
2023-05-07T06:23:08.710Z,1.40
2023-05-07T06:24:11.137Z,1.37
2023-05-07T06:25:13.156Z,1.10
2023-05-07T06:26:15.029Z,1.37
2023-05-07T06:27:16.977Z,1.20
2023-05-07T06:28:19.109Z,1.40
2023-05-07T06:29:21.380Z,1.10
2023-05-07T06:30:23.465Z,1.40
2023-05-07T06:31:34.418Z,1.60
2023-05-07T06:32:36.419Z,1.30
2023-05-07T06:33:38.326Z,1.60
2023-05-07T06:34:42.132Z,1.30
2023-05-07T06:35:44.095Z,1.63
2023-05-07T06:36:46.010Z,1.20
2023-05-07T06:37:47.974Z,1.40
2023-05-07T06:38:49.916Z,1.30
2023-05-07T06:39:51.940Z,1.50
2023-05-07T06:40:56.230Z,1.43
2023-05-07T06:41:58.644Z,1.67
2023-05-07T06:43:00.788Z,1.80
2023-05-07T06:44:04.050Z,1.67
2023-05-07T06:45:06.742Z,1.50
2023-05-07T06:46:08.778Z,1.30
2023-05-07T06:47:11.353Z,1.50
2023-05-07T06:48:14.266Z,1.60
2023-05-07T06:49:16.978Z,1.70
2023-05-07T06:50:19.046Z,1.47
2023-05-07T06:51:21.092Z,1.40
2023-05-07T06:52:23.271Z,1.40
2023-05-07T06:53:25.740Z,1.20
2023-05-07T06:54:27.625Z,1.30
2023-05-07T06:55:29.798Z,1.30
2023-05-07T06:56:32.777Z,1.40
2023-05-07T06:57:34.739Z,1.30
2023-05-07T06:58:38.489Z,1.70
2023-05-07T06:59:40.624Z,2.00
2023-05-07T07:00:42.726Z,1.30
2023-05-07T07:01:45.013Z,1.20
2023-05-07T07:02:47.183Z,1.67
2023-05-07T07:03:49.108Z,1.40
2023-05-07T07:04:51.155Z,1.43
2023-05-07T07:05:54.622Z,1.30
2023-05-07T07:06:57.648Z,1.33
2023-05-07T07:07:59.558Z,1.33
2023-05-07T07:09:01.675Z,1.50
2023-05-07T07:10:05.316Z,1.50
2023-05-07T07:11:07.747Z,1.57
2023-05-07T07:12:10.026Z,1.23
2023-05-07T07:13:12.212Z,1.10
2023-05-07T07:14:14.275Z,1.27
2023-05-07T07:15:16.846Z,1.30
2023-05-07T07:16:18.809Z,1.40
2023-05-07T07:17:20.787Z,1.30
2023-05-07T07:18:22.678Z,1.30
2023-05-07T07:19:24.850Z,1.30
2023-05-07T07:20:26.780Z,1.40
2023-05-07T07:21:28.677Z,1.20
2023-05-07T07:22:30.613Z,1.13
2023-05-07T07:23:32.524Z,1.00
2023-05-07T07:24:34.503Z,1.37
2023-05-07T07:25:36.542Z,1.10
2023-05-07T07:26:38.419Z,1.10
2023-05-07T07:27:41.096Z,1.47
2023-05-07T07:28:47.046Z,1.20
2023-05-07T07:29:49.203Z,1.20
2023-05-07T07:30:51.201Z,1.47
2023-05-07T07:31:53.491Z,0.90
2023-05-07T07:32:59.388Z,1.10
2023-05-07T07:34:01.300Z,1.20
2023-05-07T07:35:03.416Z,1.17
2023-05-07T07:36:07.709Z,1.20
2023-05-07T07:37:09.793Z,1.20
2023-05-07T07:38:11.781Z,1.40
2023-05-07T07:39:14.431Z,1.37
2023-05-07T07:40:16.757Z,1.43
2023-05-07T07:41:18.642Z,1.00
2023-05-07T07:42:20.634Z,1.33
2023-05-07T07:43:22.548Z,1.10
2023-05-07T07:44:24.634Z,1.30
2023-05-07T07:45:26.662Z,1.10
2023-05-07T07:46:28.670Z,1.30
2023-05-07T07:47:30.914Z,1.00
2023-05-07T07:48:32.910Z,0.90
2023-05-07T07:49:35.161Z,1.00
2023-05-07T07:50:45.498Z,1.40
2023-05-07T07:51:48.223Z,1.00
2023-05-07T07:52:51.046Z,1.00
2023-05-07T07:53:52.958Z,1.30
2023-05-07T07:54:54.872Z,1.10
2023-05-07T07:55:59.331Z,0.90
2023-05-07T07:57:02.499Z,1.20
2023-05-07T07:58:04.403Z,1.05
2023-05-07T07:59:06.347Z,0.90
2023-05-07T08:00:09.409Z,0.90
2023-05-07T08:01:13.275Z,0.93
2023-05-07T08:02:15.276Z,1.00
2023-05-07T08:03:17.690Z,1.00
2023-05-07T08:04:19.884Z,0.85
2023-05-07T08:05:21.975Z,0.93
2023-05-07T08:06:24.132Z,0.90
2023-05-07T08:07:26.045Z,1.00
2023-05-07T08:08:28.036Z,1.00
2023-05-07T08:09:29.910Z,0.97
2023-05-07T08:10:36.026Z,1.07
2023-05-07T08:11:38.139Z,1.00
2023-05-07T08:12:40.257Z,1.20
2023-05-07T08:13:42.689Z,1.10
2023-05-07T08:14:45.041Z,1.40
2023-05-07T08:15:47.095Z,1.00
2023-05-07T08:16:49.172Z,1.20
2023-05-07T08:17:51.075Z,1.00
2023-05-07T08:18:53.011Z,0.93
2023-05-07T08:19:54.905Z,1.17
2023-05-07T08:20:57.044Z,0.90
2023-05-07T08:21:58.988Z,1.20
2023-05-07T08:23:01.086Z,1.83
2023-05-07T08:24:03.259Z,1.43
2023-05-07T08:25:05.754Z,1.03
2023-05-07T08:26:09.490Z,1.10
2023-05-07T08:27:11.372Z,1.02
2023-05-07T08:28:13.437Z,0.95
2023-05-07T08:29:15.487Z,0.83
2023-05-07T08:30:17.433Z,0.77
2023-05-07T08:31:19.429Z,0.90
2023-05-07T08:32:21.802Z,0.70
2023-05-07T08:33:23.739Z,1.00
2023-05-07T08:34:25.857Z,0.90
2023-05-07T08:35:28.980Z,0.95
2023-05-07T08:36:30.919Z,0.93
2023-05-07T08:37:33.213Z,1.07
2023-05-07T08:38:35.362Z,1.10
2023-05-07T08:39:37.220Z,0.77
2023-05-07T08:40:41.905Z,0.90
2023-05-07T08:41:47.816Z,0.90
2023-05-07T08:42:52.802Z,0.90
2023-05-07T08:43:59.174Z,0.90
2023-05-07T08:45:02.164Z,0.88
2023-05-07T08:46:09.480Z,0.90
2023-05-07T08:47:12.159Z,1.25
2023-05-07T08:48:18.728Z,0.80
2023-05-07T08:49:21.646Z,1.02
2023-05-07T08:50:23.968Z,0.80
2023-05-07T08:51:25.844Z,1.20
2023-05-07T08:52:28.557Z,1.30
2023-05-07T08:53:30.941Z,1.17
2023-05-07T08:54:34.410Z,1.02
2023-05-07T08:55:36.361Z,1.08
2023-05-07T08:56:38.331Z,1.08
2023-05-07T08:57:40.697Z,1.15
2023-05-07T08:58:46.308Z,1.00
2023-05-07T08:59:48.242Z,1.20
2023-05-07T09:00:52.689Z,1.20
2023-05-07T09:01:54.659Z,0.90
2023-05-07T09:02:57.163Z,1.25
2023-05-07T09:03:59.356Z,1.15
2023-05-07T09:05:01.491Z,1.25
2023-05-07T09:06:03.509Z,1.10
2023-05-07T09:07:06.559Z,1.30
2023-05-07T09:08:09.276Z,1.23
2023-05-07T09:09:18.749Z,1.35
2023-05-07T09:10:22.271Z,1.50
2023-05-07T09:11:25.155Z,1.30
2023-05-07T09:12:27.064Z,1.17
2023-05-07T09:13:30.543Z,1.48
2023-05-07T09:14:32.448Z,1.40
2023-05-07T09:15:34.389Z,1.33
2023-05-07T09:16:36.509Z,1.63
2023-05-07T09:17:38.589Z,1.67
2023-05-07T09:18:44.595Z,1.30
2023-05-07T09:19:47.181Z,1.75
2023-05-07T09:20:49.261Z,1.25
2023-05-07T09:21:58.473Z,1.30
2023-05-07T09:23:00.457Z,1.00
2023-05-07T09:24:02.395Z,1.58
2023-05-07T09:25:05.706Z,1.13
2023-05-07T09:26:12.738Z,1.15
2023-05-07T09:27:14.712Z,1.23
2023-05-07T09:28:16.693Z,0.98
2023-05-07T09:29:19.244Z,1.15
2023-05-07T09:30:21.072Z,1.25
2023-05-07T09:31:24.551Z,1.30
2023-05-07T09:32:28.296Z,1.15
2023-05-07T09:33:31.410Z,1.00
2023-05-07T09:34:34.123Z,1.10
2023-05-07T09:35:36.164Z,1.20
2023-05-07T09:36:38.225Z,1.05
2023-05-07T09:37:42.155Z,1.20
2023-05-07T09:38:44.051Z,1.35
2023-05-07T09:39:49.084Z,1.13
2023-05-07T09:41:04.300Z,1.05
2023-05-07T09:42:06.713Z,1.30
2023-05-07T09:43:13.834Z,1.10
2023-05-07T09:44:16.348Z,1.20
2023-05-07T09:45:25.973Z,1.10
2023-05-07T09:46:33.537Z,1.30
2023-05-07T09:47:40.871Z,1.20
2023-05-07T09:48:45.200Z,0.98
2023-05-07T09:49:49.623Z,1.10
2023-05-07T09:50:59.529Z,1.10
2023-05-07T09:52:04.014Z,1.20
2023-05-07T09:53:06.914Z,0.93
2023-05-07T09:54:09.272Z,1.25
2023-05-07T09:55:13.226Z,1.10
2023-05-07T09:56:17.461Z,1.40
2023-05-07T09:57:21.700Z,1.00
2023-05-07T09:58:26.576Z,1.30
2023-05-07T09:59:30.818Z,1.08
2023-05-07T10:00:33.922Z,1.10
2023-05-07T10:01:38.576Z,1.25
2023-05-07T10:02:47.556Z,1.20
2023-05-07T10:03:53.820Z,1.25
2023-05-07T10:04:57.302Z,0.90
2023-05-07T10:06:00.873Z,0.98
2023-05-07T10:07:04.725Z,0.77
2023-05-07T10:08:07.844Z,0.80
2023-05-07T10:09:10.796Z,0.93
2023-05-07T10:10:13.780Z,1.30
2023-05-07T10:11:16.683Z,1.20
2023-05-07T10:12:19.782Z,0.90
2023-05-07T10:13:22.476Z,0.90
2023-05-07T10:14:26.017Z,1.13
2023-05-07T10:15:29.983Z,1.00
2023-05-07T10:16:37.836Z,0.82
2023-05-07T10:17:41.055Z,1.20
2023-05-07T10:18:44.221Z,0.93
2023-05-07T10:19:46.279Z,0.93
2023-05-07T10:20:49.273Z,0.88
2023-05-07T10:21:58.041Z,0.90
2023-05-07T10:23:00.958Z,1.10
2023-05-07T10:24:15.636Z,1.17
2023-05-07T10:25:26.482Z,1.00
2023-05-07T10:26:32.301Z,0.90
2023-05-07T10:27:35.323Z,1.05
2023-05-07T10:28:45.318Z,1.00
2023-05-07T10:30:08.916Z,0.90
2023-05-07T10:31:31.481Z,1.15
2023-05-07T10:32:53.954Z,0.95
2023-05-07T10:33:59.075Z,0.90
2023-05-07T10:35:07.689Z,0.95
2023-05-07T10:36:09.931Z,0.90
2023-05-07T10:37:12.908Z,0.90
2023-05-07T10:38:15.095Z,0.90
2023-05-07T10:39:17.612Z,0.80
2023-05-07T10:40:22.262Z,0.80
2023-05-07T10:41:24.223Z,0.70
2023-05-07T10:42:26.290Z,0.70
2023-05-07T10:43:44.609Z,0.77
2023-05-07T10:44:46.816Z,0.80
2023-05-07T10:46:27.393Z,1.00
2023-05-07T10:47:29.354Z,1.00
2023-05-07T10:48:31.491Z,1.00
2023-05-07T10:49:33.404Z,0.80
2023-05-07T10:50:36.863Z,0.70
2023-05-07T10:51:39.611Z,0.90
2023-05-07T10:52:41.642Z,1.02
2023-05-07T10:53:43.599Z,0.95
2023-05-07T10:54:47.038Z,0.80
2023-05-07T10:55:52.599Z,0.90
2023-05-07T10:56:54.526Z,0.80
2023-05-07T10:57:56.397Z,0.73
2023-05-07T10:59:24.906Z,0.85
2023-05-07T11:00:39.141Z,0.77
2023-05-07T11:01:58.806Z,1.10
2023-05-07T11:03:01.450Z,0.77
2023-05-07T11:04:25.372Z,1.00
2023-05-07T11:05:30.239Z,0.82
2023-05-07T11:06:35.534Z,0.85
2023-05-07T11:07:37.613Z,0.95
2023-05-07T11:08:58.137Z,1.08
2023-05-07T11:10:05.915Z,0.98
2023-05-07T11:11:08.580Z,0.70
2023-05-07T11:12:10.626Z,0.70
2023-05-07T11:13:12.995Z,1.20
2023-05-07T11:14:45.901Z,0.85
2023-05-07T11:15:49.488Z,0.88
2023-05-07T11:17:04.254Z,0.70
2023-05-07T11:18:07.328Z,0.70
2023-05-07T11:19:09.216Z,0.95
2023-05-07T11:20:11.241Z,1.20
2023-05-07T11:21:13.601Z,0.63
2023-05-07T11:22:41.156Z,0.90
2023-05-07T11:23:42.988Z,0.95
2023-05-07T11:24:45.093Z,0.70
2023-05-07T11:25:47.377Z,0.80
2023-05-07T11:26:51.197Z,0.80
2023-05-07T11:27:53.932Z,0.90
2023-05-07T11:28:56.225Z,0.98
2023-05-07T11:29:58.228Z,0.73
2023-05-07T11:31:00.926Z,0.80
2023-05-07T11:32:04.350Z,0.70
2023-05-07T11:33:06.827Z,0.80
2023-05-07T11:34:10.813Z,0.70
2023-05-07T11:35:14.502Z,0.90
2023-05-07T11:36:17.057Z,0.68
2023-05-07T11:37:20.601Z,0.77
2023-05-07T11:38:22.938Z,0.52
2023-05-07T11:39:37.126Z,0.65
2023-05-07T11:40:57.508Z,0.50
2023-05-07T11:42:00.797Z,0.80
2023-05-07T11:43:12.229Z,0.60
2023-05-07T11:44:14.568Z,0.60
2023-05-07T11:45:28.030Z,0.70
2023-05-07T11:46:30.565Z,0.80
2023-05-07T11:47:33.365Z,0.50
2023-05-07T11:48:35.859Z,0.75
2023-05-07T11:49:37.758Z,0.75
2023-05-07T11:51:00.879Z,0.63
2023-05-07T11:52:04.365Z,0.70
2023-05-07T11:53:13.852Z,0.77
2023-05-07T11:54:19.081Z,0.73
2023-05-07T11:55:21.639Z,0.70
2023-05-07T11:56:24.217Z,0.68
2023-05-07T11:57:26.912Z,0.80
2023-05-07T11:58:28.759Z,0.50
2023-05-07T11:59:30.726Z,0.47
2023-05-07T12:00:32.849Z,0.63
2023-05-07T12:01:38.064Z,0.70
2023-05-07T12:02:40.409Z,0.50
2023-05-07T12:03:45.848Z,0.50
2023-05-07T12:04:47.835Z,0.60
2023-05-07T12:05:50.463Z,0.68
2023-05-07T12:06:56.828Z,0.70
2023-05-07T12:07:59.185Z,0.60
2023-05-07T12:09:02.175Z,0.52
2023-05-07T12:10:08.098Z,0.60
2023-05-07T12:11:18.485Z,0.60
2023-05-07T12:12:20.518Z,0.47
2023-05-07T12:13:27.094Z,0.50
2023-05-07T12:14:30.206Z,0.90
2023-05-07T12:15:32.080Z,0.70
2023-05-07T12:16:34.297Z,0.70
2023-05-07T12:17:36.401Z,0.63
2023-05-07T12:18:39.147Z,0.60
2023-05-07T12:19:44.176Z,0.77
2023-05-07T12:20:46.602Z,0.65
2023-05-07T12:21:49.143Z,0.70
2023-05-07T12:22:53.636Z,0.65
2023-05-07T12:23:56.064Z,0.70
2023-05-07T12:24:59.861Z,0.60
2023-05-07T12:26:02.242Z,0.70
2023-05-07T12:27:05.030Z,0.55
2023-05-07T12:28:09.159Z,0.60
2023-05-07T12:29:11.350Z,0.60
2023-05-07T12:30:14.110Z,0.35
2023-05-07T12:31:17.103Z,0.70
2023-05-07T12:32:21.964Z,0.60
2023-05-07T12:33:27.566Z,0.45
2023-05-07T12:34:29.539Z,0.70
2023-05-07T12:35:43.008Z,0.60
2023-05-07T12:36:44.910Z,0.75
2023-05-07T12:38:00.995Z,0.57
2023-05-07T12:39:02.902Z,0.60
2023-05-07T12:40:07.834Z,0.68
2023-05-07T12:41:13.413Z,0.40
2023-05-07T12:42:26.607Z,0.60
2023-05-07T12:43:30.407Z,0.50
2023-05-07T12:44:35.247Z,0.38
2023-05-07T12:45:40.325Z,0.57
2023-05-07T12:46:42.332Z,0.60
2023-05-07T12:47:48.435Z,0.70
2023-05-07T12:48:50.937Z,0.60
2023-05-07T12:49:52.856Z,0.68
2023-05-07T12:50:56.639Z,0.38
2023-05-07T12:51:59.647Z,0.47
2023-05-07T12:53:07.034Z,0.80
2023-05-07T12:54:09.040Z,0.47
2023-05-07T12:55:15.349Z,0.50
2023-05-07T12:56:17.745Z,0.50
2023-05-07T12:57:21.811Z,0.45
2023-05-07T12:58:31.768Z,0.32
2023-05-07T12:59:41.009Z,0.47
2023-05-07T13:00:44.392Z,0.50
2023-05-07T13:01:46.885Z,0.60
2023-05-07T13:02:49.160Z,0.70
2023-05-07T13:03:51.566Z,0.70
2023-05-07T13:04:54.216Z,0.43
2023-05-07T13:06:11.242Z,0.60
2023-05-07T13:07:13.443Z,0.55
2023-05-07T13:08:35.244Z,0.57
2023-05-07T13:09:38.225Z,0.63
2023-05-07T13:10:40.116Z,0.70
2023-05-07T13:11:42.487Z,0.60
2023-05-07T13:12:44.487Z,0.60
2023-05-07T13:13:46.371Z,0.50
2023-05-07T13:14:48.283Z,0.65
2023-05-07T13:15:50.398Z,0.50
2023-05-07T13:16:52.535Z,0.50
2023-05-07T13:17:54.455Z,0.60
2023-05-07T13:18:56.533Z,0.60
2023-05-07T13:19:58.414Z,0.55
2023-05-07T13:21:02.038Z,0.60
2023-05-07T13:22:04.467Z,0.70
2023-05-07T13:23:06.368Z,0.60
2023-05-07T13:24:08.942Z,0.50
2023-05-07T13:25:11.201Z,0.50
2023-05-07T13:26:25.670Z,0.32
2023-05-07T13:27:28.870Z,0.60
2023-05-07T13:28:31.459Z,0.60
2023-05-07T13:29:33.414Z,0.65
2023-05-07T13:30:35.860Z,0.60
2023-05-07T13:31:37.937Z,0.55
2023-05-07T13:32:39.938Z,0.43
2023-05-07T13:33:42.385Z,0.65
2023-05-07T13:34:44.507Z,0.40
2023-05-07T13:35:46.483Z,0.40
2023-05-07T13:36:48.683Z,0.52
2023-05-07T13:37:50.754Z,0.50
2023-05-07T13:38:52.901Z,0.63
2023-05-07T13:39:54.911Z,0.50
2023-05-07T13:40:56.787Z,0.35
2023-05-07T13:41:58.649Z,0.60
2023-05-07T13:43:03.436Z,0.60
2023-05-07T13:44:05.434Z,0.50
2023-05-07T13:45:08.312Z,0.70
2023-05-07T13:46:10.433Z,0.60
2023-05-07T13:47:12.665Z,0.60
2023-05-07T13:48:14.734Z,0.60
2023-05-07T13:49:16.888Z,0.40
2023-05-07T13:50:19.108Z,0.60
2023-05-07T13:51:21.944Z,0.60
2023-05-07T13:52:23.857Z,0.50
2023-05-07T13:53:25.856Z,0.60
2023-05-07T13:54:27.787Z,0.60
2023-05-07T13:55:30.716Z,0.50
2023-05-07T13:56:33.439Z,0.50
2023-05-07T13:57:35.335Z,0.57
2023-05-07T13:58:42.169Z,0.50
2023-05-07T13:59:50.404Z,0.40
2023-05-07T14:00:52.656Z,0.40
2023-05-07T14:01:55.786Z,0.70
2023-05-07T14:02:58.803Z,1.13
2023-05-07T14:04:00.951Z,1.40
2023-05-07T14:05:03.087Z,1.77